Time;durP1;ratioP1;P1;durP2;ratioP2;P2;SDS_P1;SDS_P2;PMS_P1;PMS_P2;Temp;Humidity;BMP_temperature;BMP_pressure;BME280_temperature;BME280_humidity;BME280_pressure;Samples;Min_cycle;Max_cycle;Signal;HPM_P1;HPM_P2
2022/12/09 00:02:11;;;;;;;44.97;27.33;;;;;;;12.54;100.00;-17479.97;5092926;28;20192;-65
2022/12/09 00:04:39;;;;;;;37.73;26.20;;;;;;;12.55;100.00;-17161.47;5093306;28;20192;-65
2022/12/09 00:07:06;;;;;;;38.00;26.93;;;;;;;12.57;100.00;-17480.66;5093032;28;20234;-65
2022/12/09 00:09:33;;;;;;;37.20;26.63;;;;;;;12.57;100.00;-17799.59;5092343;28;20196;-64
2022/12/09 00:12:00;;;;;;;43.50;25.53;;;;;;;12.64;100.00;-16525.50;5093006;28;20530;-65
2022/12/09 00:14:27;;;;;;;44.87;27.83;;;;;;;12.68;100.00;-13973.47;5093173;28;20257;-66
2022/12/09 00:16:53;;;;;;;38.37;28.73;;;;;;;12.53;100.00;-9499.63;5093113;28;20540;-66
2022/12/09 00:19:20;;;;;;;42.23;28.00;;;;;;;12.34;100.00;-7260.44;5092897;28;20184;-65
2022/12/09 00:21:49;;;;;;;53.77;30.53;;;;;;;12.25;100.00;-4381.50;5093140;28;20188;-65
2022/12/09 00:24:15;;;;;;;45.33;28.23;;;;;;;12.11;100.00;-3741.41;5092607;28;20188;-65
2022/12/09 00:26:42;;;;;;;43.13;28.57;;;;;;;11.97;100.00;-5020.53;5092721;28;20365;-65
2022/12/09 00:29:10;;;;;;;52.53;31.07;;;;;;;11.84;100.00;-6618.19;5093091;28;20203;-66
2022/12/09 00:31:38;;;;;;;49.17;30.63;;;;;;;11.62;100.00;-8213.66;5093437;28;20180;-65
2022/12/09 00:34:07;;;;;;;47.43;29.37;;;;;;;11.50;100.00;-8851.06;5092726;28;20188;-65
2022/12/09 00:36:35;;;;;;;54.90;30.00;;;;;;;11.31;100.00;-9168.34;5092331;28;20203;-64
2022/12/09 00:39:03;;;;;;;53.17;30.03;;;;;;;11.18;100.00;-12036.31;5092595;28;20649;-65
2022/12/09 00:41:30;;;;;;;64.77;37.10;;;;;;;11.11;100.00;-14264.81;5092248;28;20191;-65
2022/12/09 00:43:57;;;;;;;60.87;37.63;;;;;;;10.80;100.00;-17440.34;5092217;28;20280;-64
2022/12/09 00:46:24;;;;;;;70.80;35.23;;;;;;;11.03;100.00;-18083.47;5092189;28;20191;-64
2022/12/09 00:48:51;;;;;;;55.77;33.77;;;;;;;10.83;100.00;-17758.97;5092011;28;20211;-65
2022/12/09 00:51:20;;;;;;;55.93;32.97;;;;;;;10.92;100.00;-17125.13;5092115;28;20188;-66
2022/12/09 00:53:49;;;;;;;59.97;32.03;;;;;;;10.98;100.00;-15853.88;5092277;28;20179;-65
2022/12/09 00:56:17;;;;;;;53.87;31.03;;;;;;;10.86;100.00;-15215.13;5092283;28;20191;-65
2022/12/09 00:58:44;;;;;;;51.93;31.23;;;;;;;10.88;100.00;-15215.50;5091961;28;20180;-65
2022/12/09 01:01:10;;;;;;;60.50;30.93;;;;;;;10.96;100.00;-15217.06;5092101;28;20653;-64
2022/12/09 01:03:38;;;;;;;53.33;30.57;;;;;;;10.86;100.00;-14260.50;5091848;28;20188;-65
2022/12/09 01:06:08;;;;;;;47.93;30.43;;;;;;;10.83;100.00;-15214.63;5092107;28;20195;-65
2022/12/09 01:08:35;;;;;;;49.13;29.53;;;;;;;10.91;100.00;-15216.09;5092210;28;20579;-65
2022/12/09 01:11:08;;;;;;;55.73;29.87;;;;;;;10.78;100.00;-14577.28;5092064;28;20212;-65
2022/12/09 01:13:37;;;;;;;48.07;29.27;;;;;;;10.83;100.00;-14896.34;5092060;28;20187;-64
2022/12/09 01:16:04;;;;;;;53.00;28.70;;;;;;;10.76;100.00;-14576.94;5091952;28;20195;-64
2022/12/09 01:18:32;;;;;;;46.27;28.83;;;;;;;10.87;100.00;-14897.09;5091656;28;20199;-65
2022/12/09 01:20:59;;;;;;;49.13;27.50;;;;;;;10.81;100.00;-14577.75;5091375;28;20186;-65
2022/12/09 01:23:26;;;;;;;50.80;28.97;;;;;;;10.76;100.00;-14576.94;5091711;28;20188;-65
2022/12/09 01:25:52;;;;;;;44.97;27.87;;;;;;;10.78;100.00;-14895.38;5091343;28;20237;-65
2022/12/09 01:28:19;;;;;;;48.97;28.70;;;;;;;10.63;100.00;-15210.72;5091719;28;20649;-64
2022/12/09 01:30:48;;;;;;;44.03;27.13;;;;;;;10.70;100.00;-15212.00;5091592;28;20191;-65
2022/12/09 01:33:14;;;;;;;45.03;27.97;;;;;;;10.62;100.00;-14892.44;5091777;28;20208;-65
2022/12/09 01:35:41;;;;;;;43.87;27.53;;;;;;;10.72;100.00;-14894.25;5091582;28;20200;-64
2022/12/09 01:38:08;;;;;;;48.00;27.47;;;;;;;10.70;100.00;-14893.88;5091656;28;20550;-65
2022/12/09 01:40:35;;;;;;;50.00;27.07;;;;;;;10.69;100.00;-14575.63;5091398;28;20183;-64
2022/12/09 01:43:02;;;;;;;47.27;27.30;;;;;;;10.69;100.00;-15211.78;5091619;28;20206;-65
2022/12/09 01:45:40;;;;;;;42.90;27.13;;;;;;;10.70;100.00;-15530.06;5091764;28;20188;-65
2022/12/09 01:48:13;;;;;;;44.77;27.23;;;;;;;10.71;100.00;-16166.34;5091219;28;20222;-65
2022/12/09 01:50:45;;;;;;;46.47;27.13;;;;;;;10.60;100.00;-16164.03;5091312;28;20230;-65
2022/12/09 01:53:15;;;;;;;50.03;27.67;;;;;;;10.88;100.00;-15851.81;5091356;28;20558;-64
2022/12/09 01:55:43;;;;;;;47.60;26.73;;;;;;;10.98;100.00;-15217.56;5091609;28;20192;-64
2022/12/09 01:58:10;;;;;;;45.13;26.67;;;;;;;11.02;100.00;-14581.63;5091235;28;20199;-64
2022/12/09 02:00:37;;;;;;;43.33;25.57;;;;;;;11.03;100.00;-14581.72;5091610;28;20191;-65
2022/12/09 02:03:06;;;;;;;43.10;25.70;;;;;;;10.96;100.00;-14262.22;5091513;28;20567;-65
2022/12/09 02:05:35;;;;;;;48.93;26.23;;;;;;;11.01;100.00;-14581.47;5091540;28;20184;-65
2022/12/09 02:08:02;;;;;;;44.67;26.40;;;;;;;11.05;100.00;-14900.44;5091090;28;20228;-65
2022/12/09 02:10:29;;;;;;;47.80;25.60;;;;;;;11.06;100.00;-14582.38;5091520;28;20184;-65
2022/12/09 02:13:06;;;;;;;43.93;26.10;;;;;;;11.06;100.00;-15218.91;5091484;28;20196;-66
2022/12/09 02:15:40;;;;;;;42.50;24.60;;;;;;;11.06;100.00;-15537.19;5091423;28;20184;-65
2022/12/09 02:18:15;;;;;;;47.03;25.90;;;;;;;11.09;100.00;-15856.03;5091377;28;20180;-64
2022/12/09 02:20:48;;;;;;;52.37;25.83;;;;;;;11.00;100.00;-15854.28;5091025;28;20184;-65
2022/12/09 02:23:22;;;;;;;46.80;26.30;;;;;;;11.16;100.00;-15539.28;5091204;28;20184;-65
2022/12/09 02:25:55;;;;;;;44.27;25.03;;;;;;;11.18;100.00;-15221.34;5090800;28;20240;-65
2022/12/09 02:28:41;;;;;;;38.07;25.27;;;;;;;11.24;100.00;-14904.03;5091263;28;20200;-66
2022/12/09 02:31:22;;;;;;;55.77;26.37;;;;;;;11.30;100.00;-14586.72;5091005;28;20185;-65
2022/12/09 02:34:04;;;;;;;49.87;25.27;;;;;;;11.35;100.00;-14269.13;5093966;28;20283;-64
2022/12/09 02:36:41;;;;;;;49.07;26.33;;;;;;;11.33;100.00;-13950.31;5093626;28;20610;-65
2022/12/09 02:39:09;;;;;;;48.27;24.60;;;;;;;11.39;100.00;-13951.38;5094904;28;20657;-64
2022/12/09 02:41:41;;;;;;;45.40;27.43;;;;;;;11.42;100.00;-13951.81;5094822;28;20248;-66
2022/12/09 02:44:14;;;;;;;50.47;25.00;;;;;;;11.48;100.00;-13952.78;5094800;28;20565;-65
2022/12/09 02:46:44;;;;;;;53.80;27.23;;;;;;;11.50;100.00;-13953.13;5094753;28;20631;-65
2022/12/09 02:49:14;;;;;;;51.77;29.60;;;;;;;11.51;100.00;-14272.00;5094334;28;20203;-64
2022/12/09 02:51:42;;;;;;;64.50;31.03;;;;;;;11.51;100.00;-14590.50;5094346;28;20180;-64
2022/12/09 02:54:13;;;;;;;55.50;30.03;;;;;;;11.61;100.00;-14273.72;5094655;28;20192;-64
2022/12/09 02:56:45;;;;;;;68.30;34.53;;;;;;;11.55;100.00;-14272.63;5094543;28;20293;-64
2022/12/09 02:59:12;;;;;;;75.73;34.80;;;;;;;11.53;100.00;-13953.63;5094234;28;20191;-65
2022/12/09 03:01:47;;;;;;;66.07;34.37;;;;;;;11.26;100.00;-13949.09;5094494;28;20501;-65
2022/12/09 03:04:19;;;;;;;59.37;31.57;;;;;;;11.28;100.00;-14904.78;5094422;28;20187;-65
2022/12/09 03:06:52;;;;;;;69.70;36.33;;;;;;;11.40;100.00;-15225.66;5094040;28;20195;-65
2022/12/09 03:09:24;;;;;;;64.17;33.93;;;;;;;11.53;100.00;-15227.97;5094000;28;20219;-65
2022/12/09 03:11:52;;;;;;;63.13;34.90;;;;;;;11.53;100.00;-15228.06;5093900;28;20188;-65
2022/12/09 03:14:25;;;;;;;65.70;32.17;;;;;;;11.42;100.00;-15544.50;5093885;28;20195;-65
2022/12/09 03:17:00;;;;;;;68.57;33.40;;;;;;;11.43;100.00;-15863.13;5093827;28;20239;-65
2022/12/09 03:19:33;;;;;;;63.23;32.83;;;;;;;11.28;100.00;-16496.66;5094138;28;20609;-65
2022/12/09 03:22:06;;;;;;;66.77;32.00;;;;;;;11.39;100.00;-16817.34;5094053;28;20183;-65
2022/12/09 03:24:36;;;;;;;58.70;32.33;;;;;;;11.47;100.00;-16819.00;5093785;28;20732;-64
2022/12/09 03:27:09;;;;;;;69.93;33.63;;;;;;;11.46;100.00;-16818.88;5093876;28;20191;-64
2022/12/09 03:29:40;;;;;;;63.07;31.67;;;;;;;11.40;100.00;-17454.09;5093530;28;20298;-65
2022/12/09 03:32:10;;;;;;;56.73;30.63;;;;;;;11.35;100.00;-17771.03;5093813;28;20275;-64
2022/12/09 03:34:42;;;;;;;55.23;28.50;;;;;;;11.27;100.00;-17769.13;5093527;28;20184;-65
2022/12/09 03:37:12;;;;;;;57.73;30.07;;;;;;;11.29;100.00;-18087.88;5093881;28;20200;-64
2022/12/09 03:39:41;;;;;;;53.73;28.13;;;;;;;11.12;100.00;-18085.63;5093318;28;20190;-64
2022/12/09 03:42:15;;;;;;;60.53;28.47;;;;;;;11.30;100.00;-18088.09;5093273;28;20184;-64
2022/12/09 03:44:48;;;;;;;58.77;28.53;;;;;;;11.28;100.00;-17769.50;5093222;28;20245;-65
2022/12/09 03:47:15;;;;;;;54.63;27.07;;;;;;;11.27;100.00;-17451.09;5093306;28;20286;-64
2022/12/09 03:49:43;;;;;;;59.03;28.33;;;;;;;11.30;100.00;-17769.97;5093228;28;20633;-63
2022/12/09 03:52:15;;;;;;;50.40;29.43;;;;;;;11.17;100.00;-18084.84;5093189;28;20188;-64
2022/12/09 03:54:44;;;;;;;62.77;31.30;;;;;;;11.31;100.00;-18090.22;5093150;28;20195;-65
2022/12/09 03:57:14;;;;;;;62.43;30.47;;;;;;;11.36;100.00;-18091.31;5093351;28;20295;-66
2022/12/09 03:59:44;;;;;;;70.03;28.93;;;;;;;11.35;100.00;-18091.19;5092956;28;20661;-65
2022/12/09 04:02:12;;;;;;;63.57;30.43;;;;;;;11.41;100.00;-18090.75;5092994;28;20191;-65
2022/12/09 04:04:40;;;;;;;58.43;29.50;;;;;;;11.42;100.00;-18091.00;5092886;28;20188;-64
2022/12/09 04:07:09;;;;;;;62.63;29.77;;;;;;;11.42;100.00;-18091.00;5092770;28;20188;-65
2022/12/09 04:09:36;;;;;;;52.03;28.37;;;;;;;11.41;100.00;-18090.66;5093059;28;20633;-64
2022/12/09 04:12:03;;;;;;;54.03;27.93;;;;;;;11.41;100.00;-18090.75;5092725;28;20623;-64
2022/12/09 04:14:30;;;;;;;55.90;28.00;;;;;;;11.41;100.00;-17772.56;5092973;28;20711;-64
2022/12/09 04:16:57;;;;;;;47.03;26.27;;;;;;;11.36;100.00;-16816.69;5093013;28;20223;-64
2022/12/09 04:19:24;;;;;;;48.47;26.07;;;;;;;11.32;100.00;-14905.66;5092889;28;20198;-64
2022/12/09 04:21:51;;;;;;;46.17;25.57;;;;;;;11.24;100.00;-14267.25;5092815;28;20180;-65
2022/12/09 04:24:22;;;;;;;51.40;25.97;;;;;;;11.29;100.00;-13631.09;5092353;28;20188;-65
2022/12/09 04:26:49;;;;;;;54.23;26.10;;;;;;;11.11;100.00;-13309.56;5092444;28;20191;-64
2022/12/09 04:29:16;;;;;;;50.47;25.30;;;;;;;11.13;100.00;-12991.38;5092683;28;20666;-65
2022/12/09 04:31:42;;;;;;;45.53;26.30;;;;;;;11.04;100.00;-13626.78;5092697;28;20562;-66
2022/12/09 04:34:09;;;;;;;43.67;25.87;;;;;;;10.99;100.00;-13626.09;5092233;28;20191;-65
2022/12/09 04:36:37;;;;;;;47.60;24.87;;;;;;;10.89;100.00;-13306.03;5092260;28;20196;-66
2022/12/09 04:39:04;;;;;;;56.50;26.43;;;;;;;10.94;100.00;-15534.88;5092467;28;20272;-65
2022/12/09 04:41:32;;;;;;;55.37;24.70;;;;;;;10.90;100.00;-14579.53;5092091;28;20226;-65
2022/12/09 04:44:00;;;;;;;45.10;25.33;;;;;;;10.87;100.00;-13624.06;5092085;28;20184;-66
2022/12/09 04:46:27;;;;;;;47.50;24.47;;;;;;;10.80;100.00;-12349.31;5092239;28;20192;-65
2022/12/09 04:48:54;;;;;;;45.40;24.07;;;;;;;10.72;100.00;-12029.72;5092265;28;20204;-64
2022/12/09 04:51:21;;;;;;;52.13;25.00;;;;;;;10.78;100.00;-12985.88;5092390;28;20193;-65
2022/12/09 04:53:48;;;;;;;55.00;23.70;;;;;;;10.74;100.00;-14576.47;5092118;28;20188;-66
2022/12/09 04:56:17;;;;;;;46.70;22.40;;;;;;;10.70;100.00;-17120.13;5091823;28;20589;-65
2022/12/09 04:58:46;;;;;;;48.13;22.80;;;;;;;10.90;100.00;-18078.47;5091970;28;20187;-65
2022/12/09 05:01:15;;;;;;;42.43;22.57;;;;;;;10.94;100.00;-18081.28;5091940;28;20188;-64
2022/12/09 05:03:43;;;;;;;44.47;22.27;;;;;;;11.05;100.00;-18082.06;5091793;28;20184;-64
2022/12/09 05:06:13;;;;;;;46.27;23.13;;;;;;;11.12;100.00;-17765.72;5092165;28;20638;-64
2022/12/09 05:08:41;;;;;;;45.97;23.70;;;;;;;11.11;100.00;-17447.28;5091760;28;20187;-64
2022/12/09 05:11:08;;;;;;;39.97;22.13;;;;;;;11.10;100.00;-17128.94;5092078;28;20666;-64
2022/12/09 05:13:35;;;;;;;37.93;21.37;;;;;;;11.08;100.00;-16810.50;5091727;28;20180;-66
2022/12/09 05:16:06;;;;;;;40.73;21.70;;;;;;;11.12;100.00;-16811.38;5091676;28;20195;-65
2022/12/09 05:18:33;;;;;;;45.57;24.43;;;;;;;11.11;100.00;-16174.78;5091665;28;20271;-65
2022/12/09 05:21:03;;;;;;;47.07;21.27;;;;;;;11.07;100.00;-14264.19;5091629;28;20188;-65
2022/12/09 05:23:30;;;;;;;52.67;22.60;;;;;;;10.92;100.00;-12988.03;5091920;28;20211;-66
2022/12/09 05:25:57;;;;;;;38.17;21.80;;;;;;;10.71;100.00;-12984.78;5091517;28;20238;-65
2022/12/09 05:28:24;;;;;;;37.10;21.00;;;;;;;10.82;100.00;-13623.13;5091814;28;20665;-65
2022/12/09 05:30:51;;;;;;;46.37;25.50;;;;;;;10.61;100.00;-14892.16;5091751;28;20709;-65
2022/12/09 05:33:19;;;;;;;44.83;25.17;;;;;;;10.39;100.00;-17431.00;5091839;28;20203;-65
2022/12/09 05:35:46;;;;;;;52.10;24.20;;;;;;;10.62;100.00;-17753.91;5090436;28;20617;-65
2022/12/09 05:38:13;;;;;;;45.23;24.10;;;;;;;10.69;100.00;-17755.66;5091400;28;20184;-66
2022/12/09 05:40:40;;;;;;;48.37;25.63;;;;;;;10.65;100.00;-17436.78;5091786;28;20708;-65
2022/12/09 05:43:06;;;;;;;61.10;27.03;;;;;;;10.62;100.00;-17118.22;5091520;28;20195;-66
2022/12/09 05:45:33;;;;;;;64.60;32.20;;;;;;;10.80;100.00;-16804.31;5091683;28;20200;-65
2022/12/09 05:48:00;;;;;;;64.97;32.23;;;;;;;10.78;100.00;-16485.97;5091258;28;20196;-65
2022/12/09 05:50:28;;;;;;;72.10;37.43;;;;;;;10.83;100.00;-16168.88;5091655;28;20208;-65
2022/12/09 05:52:55;;;;;;;72.63;38.43;;;;;;;10.87;100.00;-16169.72;5091560;28;20184;-65
2022/12/09 05:55:22;;;;;;;74.53;36.27;;;;;;;10.75;100.00;-14576.75;5091680;28;20194;-65
2022/12/09 05:57:49;;;;;;;66.13;34.93;;;;;;;10.74;100.00;-14576.47;5091225;28;20262;-65
2022/12/09 06:00:16;;;;;;;57.87;31.17;;;;;;;10.87;100.00;-14578.88;5091269;28;20193;-66
2022/12/09 06:02:43;;;;;;;56.77;27.50;;;;;;;10.79;100.00;-14259.25;5091227;28;20188;-66
2022/12/09 06:05:10;;;;;;;43.77;26.30;;;;;;;10.76;100.00;-14258.63;5091429;28;20275;-65
2022/12/09 06:07:39;;;;;;;50.63;26.30;;;;;;;10.92;100.00;-14579.78;5092841;28;20630;-65
2022/12/09 06:10:06;;;;;;;51.30;28.33;;;;;;;11.10;100.00;-14583.03;5095098;28;20227;-65
2022/12/09 06:12:33;;;;;;;50.07;28.43;;;;;;;11.25;100.00;-16814.25;5095397;28;20238;-66
2022/12/09 06:15:00;;;;;;;47.33;27.37;;;;;;;11.50;100.00;-16819.53;5095055;28;20219;-66
2022/12/09 06:17:27;;;;;;;63.20;27.90;;;;;;;11.79;100.00;-15233.16;5095321;28;20562;-65
2022/12/09 06:19:54;;;;;;;48.23;25.77;;;;;;;12.11;100.00;-13963.66;5095035;28;20192;-65
2022/12/09 06:22:21;;;;;;;52.97;25.37;;;;;;;12.36;100.00;-10775.69;5095006;28;20658;-65
2022/12/09 06:24:49;;;;;;;49.13;26.40;;;;;;;12.68;100.00;-5342.66;5094897;28;20310;-65
2022/12/09 06:27:16;;;;;;;48.43;24.97;;;;;;;12.73;100.00;103.56;5095050;28;20188;-65
2022/12/09 06:29:43;;;;;;;53.00;26.63;;;;;;;12.99;100.00;5884.06;5094917;28;20681;-66
2022/12/09 06:32:09;;;;;;;51.43;26.90;;;;;;;13.20;100.00;8138.13;5094533;28;20188;-66
2022/12/09 06:34:36;;;;;;;52.73;27.80;;;;;;;13.51;100.00;11363.56;5094479;28;20180;-66
2022/12/09 06:37:03;;;;;;;52.20;29.43;;;;;;;13.76;100.00;20405.38;5094750;28;20192;-66
2022/12/09 06:39:30;;;;;;;54.97;30.07;;;;;;;14.01;100.00;26887.28;5094318;28;20183;-65
2022/12/09 06:41:58;;;;;;;64.43;28.70;;;;;;;14.30;100.00;35662.63;5094538;28;20180;-63
2022/12/09 06:44:25;;;;;;;52.13;30.63;;;;;;;14.43;100.00;49347.81;5094184;28;20180;-62
2022/12/09 06:46:52;;;;;;;55.93;26.53;;;;;;;14.60;100.00;58187.31;5094331;28;20666;-63
2022/12/09 06:49:19;;;;;;;43.47;21.73;;;;;;;14.79;100.00;69354.28;5094042;28;20208;-63
2022/12/09 06:51:46;;;;;;;40.63;20.23;;;;;;;14.93;100.00;92112.22;5094618;28;20216;-59
2022/12/09 06:54:13;;;;;;;43.53;20.47;;;;;;;14.92;100.00;107355.13;5094177;28;20191;-60
2022/12/09 06:56:40;;;;;;;43.47;21.47;;;;;;;15.09;100.00;103402.59;5093989;28;20188;-62
2022/12/09 06:59:09;;;;;;;49.33;22.33;;;;;;;15.10;100.00;98429.31;5093933;28;20206;-62
2022/12/09 07:01:37;;;;;;;44.50;20.07;;;;;;;15.54;100.00;105141.66;5094087;28;20192;-61
2022/12/09 07:04:05;;;;;;;63.10;21.67;;;;;;;16.41;100.00;150161.84;5093808;28;20639;-61
2022/12/09 07:06:34;;;;;;;42.90;21.03;;;;;;;17.24;100.00;150370.16;5093560;28;20181;-62
2022/12/09 07:09:04;;;;;;;50.63;22.40;;;;;;;17.93;100.00;150543.06;5093647;28;20192;-63
2022/12/09 07:11:31;;;;;;;43.17;22.50;;;;;;;18.49;100.00;150685.50;5093921;28;20188;-63
2022/12/09 07:13:58;;;;;;;51.03;21.63;;;;;;;19.09;100.00;150836.91;5093672;28;20180;-62
2022/12/09 07:16:28;;;;;;;61.63;21.83;;;;;;;19.41;100.00;150917.03;5093570;28;20207;-62
2022/12/09 07:18:55;;;;;;;47.13;20.23;;;;;;;19.83;100.00;151021.44;5093202;28;20191;-63
2022/12/09 07:21:23;;;;;;;55.07;22.83;;;;;;;20.20;100.00;151115.66;5093656;28;20195;-62
2022/12/09 07:23:50;;;;;;;55.20;19.63;;;;;;;20.65;100.00;151227.78;5093775;28;20180;-63
2022/12/09 07:26:17;;;;;;;60.10;21.13;;;;;;;20.79;100.00;151264.69;5093729;28;20235;-63
2022/12/09 07:28:48;;;;;;;44.13;18.73;;;;;;;21.11;100.00;151343.69;5094105;28;20631;-63
2022/12/09 07:31:20;;;;;;;35.63;17.93;;;;;;;21.13;100.00;151348.88;5093523;28;20774;-62
2022/12/09 07:33:49;;;;;;;41.63;20.33;;;;;;;20.07;100.00;151082.59;5093588;28;20196;-62
2022/12/09 07:36:16;;;;;;;33.63;21.57;;;;;;;19.76;100.00;151004.91;5093736;28;20200;-62
2022/12/09 07:38:43;;;;;;;42.03;22.10;;;;;;;19.08;100.00;150834.34;5093562;28;20187;-62
2022/12/09 07:41:16;;;;;;;51.13;22.37;;;;;;;19.06;100.00;150827.97;5091982;28;20187;-62
2022/12/09 07:43:44;;;;;;;37.13;19.43;;;;;;;20.04;100.00;151076.19;5093153;28;20199;-61
2022/12/09 07:46:15;;;;;;;32.43;19.63;;;;;;;20.20;100.00;151115.66;5092998;28;20184;-63
2022/12/09 07:48:43;;;;;;;37.33;19.67;;;;;;;20.31;100.00;151142.47;5093419;28;20267;-63
2022/12/09 07:51:11;;;;;;;41.47;21.30;;;;;;;20.37;100.00;151159.00;5093241;28;20208;-62
2022/12/09 07:53:38;;;;;;;43.20;22.07;;;;;;;20.49;100.00;151189.59;5093304;28;20288;-63
2022/12/09 07:56:07;;;;;;;46.27;22.47;;;;;;;20.42;100.00;151171.72;5093254;28;20601;-62
2022/12/09 07:58:35;;;;;;;36.87;20.77;;;;;;;20.44;100.00;151176.84;5093189;28;20575;-63
2022/12/09 08:01:05;;;;;;;36.83;20.77;;;;;;;20.54;100.00;151199.78;5093096;28;20568;-63
2022/12/09 08:03:32;;;;;;;49.30;21.53;;;;;;;20.28;100.00;151134.78;5093203;28;20192;-63
2022/12/09 08:05:59;;;;;;;41.40;21.47;;;;;;;20.22;100.00;151120.75;5092874;28;20188;-62
2022/12/09 08:08:27;;;;;;;39.70;20.93;;;;;;;20.42;100.00;151171.72;5093029;28;20184;-64
2022/12/09 08:10:54;;;;;;;36.13;22.35;;;;;;;20.68;100.00;151236.69;5092419;28;20211;-62
2022/12/09 08:13:22;;;;;;;39.67;22.47;;;;;;;21.21;100.00;151370.53;5092904;28;20253;-63
2022/12/09 08:15:49;;;;;;;36.22;22.13;;;;;;;20.96;100.00;151306.78;5092566;28;20263;-62
2022/12/09 08:18:16;;;;;;;33.63;22.77;;;;;;;20.49;100.00;151189.59;5092793;28;20499;-63
2022/12/09 08:20:44;;;;;;;43.03;20.90;;;;;;;20.30;100.00;151139.91;5092399;28;20184;-61
2022/12/09 08:23:11;;;;;;;32.50;18.67;;;;;;;20.63;100.00;151223.94;5092378;28;20188;-62
2022/12/09 08:25:39;;;;;;;46.73;18.70;;;;;;;21.23;100.00;151375.59;5092617;28;20694;-67
2022/12/09 08:28:06;;;;;;;37.53;18.55;;;;;;;22.52;100.00;151699.44;5092628;28;20188;-66
2022/12/09 08:30:35;;;;;;;25.45;16.35;;;;;;;22.73;100.00;151754.34;5092004;28;20203;-68
2022/12/09 08:33:02;;;;;;;29.45;15.77;;;;;;;24.39;100.00;152171.75;5092583;28;20287;-67
2022/12/09 08:35:30;;;;;;;25.40;14.82;;;;;;;25.59;98.02;152474.63;5092621;28;20196;-66
2022/12/09 08:37:57;;;;;;;25.95;14.05;;;;;;;26.37;90.09;152672.75;5092712;28;20645;-66
2022/12/09 08:40:24;;;;;;;21.00;14.73;;;;;;;25.61;90.38;152480.97;5092230;28;20535;-68
2022/12/09 08:42:52;;;;;;;22.00;14.48;;;;;;;25.38;92.60;152423.41;5092400;28;20188;-68
2022/12/09 08:45:19;;;;;;;19.55;15.43;;;;;;;25.32;92.51;152408.13;5092574;28;20503;-67
2022/12/09 08:47:46;;;;;;;24.05;14.63;;;;;;;25.90;88.16;152555.09;5092556;28;20195;-67
2022/12/09 08:50:16;;;;;;;28.92;15.63;;;;;;;25.51;89.06;152455.34;5091678;28;20673;-66
2022/12/09 08:52:43;;;;;;;27.45;15.32;;;;;;;25.55;90.69;152465.63;5092115;28;20195;-69
2022/12/09 08:55:15;;;;;;;23.05;15.13;;;;;;;25.93;89.05;152561.47;5091943;28;20283;-66
2022/12/09 08:57:42;;;;;;;28.70;15.73;;;;;;;26.08;85.51;152598.56;5092730;28;20635;-67
2022/12/09 09:00:11;;;;;;;33.90;15.68;;;;;;;25.92;85.77;152558.97;5092820;28;20214;-68
2022/12/09 09:02:38;;;;;;;26.73;16.30;;;;;;;25.81;87.75;152532.09;5092587;28;20188;-66
2022/12/09 09:05:05;;;;;;;19.98;16.00;;;;;;;25.35;89.91;152414.47;5092200;28;20226;-67
2022/12/09 09:07:32;;;;;;;28.55;18.27;;;;;;;24.00;98.46;152074.69;5092524;28;20202;-66
2022/12/09 09:09:59;;;;;;;27.65;17.35;;;;;;;23.44;100.00;151931.72;5092309;28;20298;-67
2022/12/09 09:12:27;;;;;;;34.67;19.50;;;;;;;23.79;100.00;152021.06;5091702;28;20188;-66
2022/12/09 09:14:54;;;;;;;30.40;19.08;;;;;;;24.26;100.00;152138.56;5092006;28;20561;-65
2022/12/09 09:17:23;;;;;;;25.30;17.67;;;;;;;24.38;99.72;152170.47;5091631;28;20187;-62
2022/12/09 09:19:50;;;;;;;32.13;17.77;;;;;;;24.12;100.00;152104.03;5091358;28;20184;-62
2022/12/09 09:22:17;;;;;;;38.78;18.10;;;;;;;23.62;100.00;151977.66;5091873;28;20642;-62
2022/12/09 09:24:44;;;;;;;32.60;16.63;;;;;;;22.88;100.00;151791.31;5091214;28;20227;-63
2022/12/09 09:27:11;;;;;;;38.90;17.00;;;;;;;22.66;100.00;151736.41;5091588;28;20184;-62
2022/12/09 09:29:37;;;;;;;29.95;19.17;;;;;;;22.31;100.00;151648.44;5091540;28;20623;-62
2022/12/09 09:32:05;;;;;;;44.55;23.65;;;;;;;22.30;100.00;151644.59;5091204;28;20194;-62
2022/12/09 09:34:33;;;;;;;45.75;23.40;;;;;;;22.39;100.00;151666.28;5091439;28;20257;-63
2022/12/09 09:37:00;;;;;;;34.38;21.25;;;;;;;23.06;100.00;151837.25;5091706;28;20196;-62
2022/12/09 09:39:27;;;;;;;38.88;20.42;;;;;;;;;;5091466;28;20191;-62
2022/12/09 09:41:55;;;;;;;30.92;18.95;;;;;;;23.17;100.00;151865.28;5093153;28;20225;-62
2022/12/09 09:44:25;;;;;;;34.83;19.00;;;;;;;23.79;100.00;152021.06;5095854;28;20267;-63
2022/12/09 09:46:54;;;;;;;31.80;18.30;;;;;;;23.92;100.00;152054.25;5095674;28;20200;-62
2022/12/09 09:49:30;;;;;;;31.58;19.70;;;;;;;23.65;100.00;151986.59;5095490;28;20191;-61
2022/12/09 09:52:03;;;;;;;29.63;19.38;;;;;;;24.16;100.00;152113.00;5095938;28;20215;-62
2022/12/09 09:54:32;;;;;;;36.45;21.50;;;;;;;24.61;98.57;152227.97;5096095;28;20267;-67
2022/12/09 09:57:05;;;;;;;44.75;23.15;;;;;;;24.29;97.70;152146.19;5095672;28;20184;-67
2022/12/09 09:59:51;;;;;;;37.70;24.52;;;;;;;24.79;97.77;152273.91;5095967;28;20184;-67
2022/12/09 10:02:28;;;;;;;35.25;23.90;;;;;;;25.21;95.59;152379.97;5095504;28;20180;-66
2022/12/09 10:05:04;;;;;;;32.55;22.13;;;;;;;25.22;94.47;152381.25;5095455;28;20237;-66
2022/12/09 10:07:39;;;;;;;39.75;23.42;;;;;;;24.81;97.13;152279.03;5095913;28;20187;-66
2022/12/09 10:10:18;;;;;;;52.53;25.95;;;;;;;24.53;97.49;152207.47;5095928;28;20207;-66
2022/12/09 10:13:02;;;;;;;38.38;22.48;;;;;;;24.46;100.00;152189.63;5095607;28;20566;-66
2022/12/09 10:15:30;;;;;;;38.40;21.63;;;;;;;25.11;97.91;152354.44;5095771;28;20188;-67
2022/12/09 10:18:08;;;;;;;43.83;22.80;;;;;;;26.44;87.89;152690.66;5096031;28;20188;-65
2022/12/09 10:20:37;;;;;;;35.28;20.95;;;;;;;26.74;84.63;152767.38;5096472;28;20195;-67
2022/12/09 10:23:11;;;;;;;37.67;19.00;;;;;;;27.14;82.63;152867.22;5095881;28;20292;-68
2022/12/09 10:25:44;;;;;;;25.13;17.35;;;;;;;27.52;77.74;152964.50;5095480;28;20224;-67
2022/12/09 10:28:19;;;;;;;25.55;14.45;;;;;;;27.40;74.68;152933.75;5095947;28;20563;-67
2022/12/09 10:30:46;;;;;;;28.20;14.25;;;;;;;26.39;79.59;152676.63;5095583;28;20219;-67
2022/12/09 10:33:14;;;;;;;20.48;11.43;;;;;;;25.26;86.59;152391.47;5095677;28;20558;-67
2022/12/09 10:35:41;;;;;;;25.38;12.43;;;;;;;24.45;93.35;152187.06;5096254;28;20245;-67
2022/12/09 10:38:12;;;;;;;33.80;11.75;;;;;;;23.96;96.59;152064.47;5095798;28;20559;-67
2022/12/09 10:40:53;;;;;;;20.17;10.65;;;;;;;24.06;97.07;152088.72;5095705;28;20180;-66
2022/12/09 10:43:34;;;;;;;24.10;10.85;;;;;;;24.36;96.36;152164.06;5096293;28;20206;-67
2022/12/09 10:46:07;;;;;;;25.73;10.98;;;;;;;24.11;95.16;152102.75;5095264;28;20677;-67
2022/12/09 10:48:37;;;;;;;33.22;11.80;;;;;;;23.34;100.00;151906.16;5094844;28;20200;-66
2022/12/09 10:51:06;;;;;;;22.42;11.50;;;;;;;23.28;100.00;151890.84;5095278;28;20578;-67
2022/12/09 10:53:36;;;;;;;29.05;11.98;;;;;;;23.09;100.00;151844.88;5094647;28;20188;-67
2022/12/09 10:56:04;;;;;;;24.52;11.30;;;;;;;22.94;100.00;151805.34;5095071;28;20635;-66
2022/12/09 10:58:32;;;;;;;29.63;11.48;;;;;;;22.94;100.00;151805.34;5094738;28;20224;-67
2022/12/09 11:01:05;;;;;;;24.08;10.80;;;;;;;22.84;100.00;151779.81;5094608;28;20180;-67
2022/12/09 11:03:34;;;;;;;24.30;11.30;;;;;;;22.55;100.00;151707.09;5095337;28;20247;-67
2022/12/09 11:06:04;;;;;;;38.80;11.50;;;;;;;22.39;100.00;151667.56;5094908;28;20184;-68
2022/12/09 11:08:32;;;;;;;22.48;11.02;;;;;;;22.30;100.00;151645.88;5094883;28;20215;-66
2022/12/09 11:11:01;;;;;;;18.52;10.65;;;;;;;22.19;100.00;151617.81;5094680;28;20290;-67
2022/12/09 11:13:39;;;;;;;18.13;11.27;;;;;;;22.06;100.00;151584.69;5095283;28;20188;-67